Terminal Aerodrome Forecast
Issued by NWS

Home | Current Version | Previous Version | Text Only | Print | Product List | Glossary On
Versions: 1 2 3 4 5 6 7 8 9 10 11 12 13 14 15 16 17 18 19 20 21 22 23 24 25 26 27 28 29 30 31 32 33 34 35 36 37 38
000
FTUS46 KOTX 230522
TAFSFF
TAF
KSFF 230522Z 2306/2406 03008KT P6SM VCSH SCT070 BKN120
     FM230800 VRB06KT P6SM FEW120
     FM231800 04006KT P6SM BKN070 BKN120
     FM240200 04003KT P6SM SCT070 SCT120=

USA.gov is the U.S. government's official web portal to all federal, state and local government web resources and services.